createdAt,value
2022-08-20T00:02:13.591Z,8.60
2022-08-20T00:04:42.050Z,9.60
2022-08-20T00:07:11.408Z,9.35
2022-08-20T00:12:23.976Z,9.13
2022-08-20T00:14:52.061Z,9.30
2022-08-20T00:17:20.106Z,8.25
2022-08-20T00:19:48.128Z,8.88
2022-08-20T00:22:17.628Z,8.70
2022-08-20T00:24:45.776Z,9.13
2022-08-20T00:27:14.900Z,8.75
2022-08-20T00:29:42.919Z,9.07
2022-08-20T00:32:10.920Z,9.25
2022-08-20T00:34:38.922Z,8.95
2022-08-20T00:37:07.724Z,8.48
2022-08-20T00:39:37.153Z,9.13
2022-08-20T00:42:05.811Z,8.45
2022-08-20T00:44:33.993Z,9.75
2022-08-20T00:47:02.796Z,10.18
2022-08-20T00:49:33.012Z,8.70
2022-08-20T00:52:06.645Z,9.43
2022-08-20T00:54:40.595Z,10.25
2022-08-20T00:57:11.655Z,9.27
2022-08-20T00:59:42.815Z,9.98
2022-08-20T01:02:14.257Z,9.57
2022-08-20T01:04:45.250Z,8.70
2022-08-20T01:07:13.260Z,8.93
2022-08-20T01:09:58.107Z,10.15
2022-08-20T01:12:27.667Z,10.23
2022-08-20T01:14:58.525Z,9.77
2022-08-20T01:17:30.066Z,10.85
2022-08-20T01:20:02.487Z,10.50
2022-08-20T01:22:57.217Z,10.13
2022-08-20T01:25:35.198Z,10.07
2022-08-20T01:28:05.132Z,9.85
2022-08-20T01:30:34.091Z,11.13
2022-08-20T01:33:02.697Z,10.15
2022-08-20T01:35:31.030Z,10.35
2022-08-20T01:37:59.038Z,10.80
2022-08-20T01:40:45.493Z,11.18
2022-08-20T01:43:15.372Z,10.82
2022-08-20T01:45:45.530Z,9.45
2022-08-20T01:48:16.566Z,10.18
2022-08-20T01:50:50.692Z,10.23
2022-08-20T01:53:22.427Z,10.38
2022-08-20T01:55:50.452Z,10.38
2022-08-20T01:58:19.940Z,10.55
2022-08-20T02:00:48.202Z,10.63
2022-08-20T02:03:16.305Z,11.02
2022-08-20T02:05:44.680Z,10.32
2022-08-20T02:08:12.889Z,10.85
2022-08-20T02:10:41.041Z,11.15
2022-08-20T02:13:10.209Z,10.75
2022-08-20T02:15:43.167Z,10.05
2022-08-20T02:18:14.257Z,10.55
2022-08-20T02:20:43.621Z,10.77
2022-08-20T02:23:13.081Z,10.50
2022-08-20T02:25:43.121Z,11.00
2022-08-20T02:28:14.185Z,10.00
2022-08-20T02:30:47.103Z,10.82
2022-08-20T02:33:17.783Z,10.63
2022-08-20T02:35:48.346Z,11.63
2022-08-20T02:38:17.560Z,11.48
2022-08-20T02:40:49.122Z,11.13
2022-08-20T02:43:18.359Z,11.45
2022-08-20T02:45:47.783Z,11.82
2022-08-20T02:48:23.005Z,12.30
2022-08-20T02:50:54.428Z,11.90
2022-08-20T02:53:22.606Z,12.13
2022-08-20T02:55:50.654Z,12.52
2022-08-20T02:58:19.205Z,11.95
2022-08-20T03:00:48.928Z,12.90
2022-08-20T03:03:20.360Z,12.63
2022-08-20T03:05:48.330Z,12.57
2022-08-20T03:08:17.262Z,12.15
2022-08-20T03:10:47.234Z,12.65
2022-08-20T03:13:16.702Z,11.52
2022-08-20T03:15:47.226Z,11.43
2022-08-20T03:18:18.080Z,10.55
2022-08-20T03:20:46.740Z,11.07
2022-08-20T03:23:21.957Z,10.68
2022-08-20T03:25:50.492Z,9.95
2022-08-20T03:28:19.208Z,10.77
2022-08-20T03:30:47.719Z,10.77
2022-08-20T03:33:17.269Z,10.70
2022-08-20T03:35:45.273Z,10.75
2022-08-20T03:38:17.393Z,12.18
2022-08-20T03:40:49.636Z,12.82
2022-08-20T03:43:18.291Z,13.85
2022-08-20T03:45:47.479Z,12.65
2022-08-20T03:48:20.774Z,10.48
2022-08-20T03:50:51.200Z,8.68
2022-08-20T03:53:19.687Z,8.25
2022-08-20T03:55:53.773Z,7.97
2022-08-20T03:58:30.047Z,8.05
2022-08-20T04:01:06.230Z,6.82
2022-08-20T04:03:35.897Z,7.50
2022-08-20T04:06:04.270Z,7.30
2022-08-20T04:08:32.412Z,7.18
2022-08-20T04:11:00.959Z,7.13
2022-08-20T04:13:30.586Z,6.82
2022-08-20T04:15:58.742Z,7.35
2022-08-20T04:18:28.130Z,8.70
2022-08-20T04:20:57.569Z,11.00
2022-08-20T04:23:25.591Z,13.18
2022-08-20T04:25:56.485Z,13.85
2022-08-20T04:28:26.974Z,14.40
2022-08-20T04:30:55.645Z,12.52
2022-08-20T04:33:35.194Z,11.90
2022-08-20T04:36:06.615Z,11.00
2022-08-20T04:38:48.049Z,11.98
2022-08-20T04:41:22.387Z,13.88
2022-08-20T04:43:52.045Z,14.75
2022-08-20T04:46:20.364Z,15.32
2022-08-20T04:48:49.050Z,14.52
2022-08-20T04:51:23.400Z,11.50
2022-08-20T04:56:24.274Z,10.48
2022-08-20T04:58:52.959Z,9.45
2022-08-20T05:01:23.099Z,8.60
2022-08-20T05:03:51.306Z,7.88
2022-08-20T05:06:20.603Z,9.15
2022-08-20T05:08:48.725Z,8.60
2022-08-20T05:11:34.735Z,7.90
2022-08-20T05:14:05.596Z,8.13
2022-08-20T05:16:38.296Z,8.27
2022-08-20T05:19:07.085Z,8.10
2022-08-20T05:21:36.814Z,8.57
2022-08-20T05:24:05.521Z,8.85
2022-08-20T05:26:34.344Z,7.95
2022-08-20T05:29:05.063Z,8.50
2022-08-20T05:31:34.874Z,7.47
2022-08-20T05:34:03.394Z,8.00
2022-08-20T05:36:31.436Z,7.78
2022-08-20T05:39:00.765Z,7.40
2022-08-20T05:41:30.610Z,7.15
2022-08-20T05:44:01.732Z,7.63
2022-08-20T05:46:31.232Z,7.72
2022-08-20T05:49:01.390Z,7.57
2022-08-20T05:51:30.179Z,7.68
2022-08-20T05:54:00.034Z,7.70
2022-08-20T05:56:30.467Z,7.03
2022-08-20T05:59:01.523Z,7.32
2022-08-20T06:01:29.969Z,6.93
2022-08-20T06:04:16.057Z,7.50
2022-08-20T06:06:44.844Z,7.07
2022-08-20T06:09:27.961Z,6.80
2022-08-20T06:12:01.564Z,7.03
2022-08-20T06:14:30.014Z,6.72
2022-08-20T06:17:05.288Z,6.82
2022-08-20T06:19:33.764Z,6.55
2022-08-20T06:22:02.523Z,7.10
2022-08-20T06:24:47.562Z,6.25
2022-08-20T06:27:17.518Z,6.45
2022-08-20T06:29:45.538Z,6.85
2022-08-20T06:32:14.155Z,6.25
2022-08-20T06:34:50.393Z,7.10
2022-08-20T06:37:21.158Z,6.30
2022-08-20T06:39:51.062Z,5.78
2022-08-20T06:42:21.236Z,6.25
2022-08-20T06:44:49.576Z,6.32
2022-08-20T06:47:18.708Z,6.18
2022-08-20T06:49:47.559Z,5.93
2022-08-20T06:52:17.084Z,6.40
2022-08-20T06:54:45.508Z,6.80
2022-08-20T06:57:15.156Z,7.05
2022-08-20T06:59:43.202Z,6.65
2022-08-20T07:02:11.170Z,7.57
2022-08-20T07:04:39.211Z,7.90
2022-08-20T07:07:07.472Z,7.38
2022-08-20T07:09:35.487Z,6.95
2022-08-20T07:12:03.751Z,7.57
2022-08-20T07:14:33.182Z,7.20
2022-08-20T07:17:03.992Z,7.30
2022-08-20T07:19:38.210Z,7.00
2022-08-20T07:22:08.399Z,7.22
2022-08-20T07:24:39.015Z,7.13
2022-08-20T07:27:09.162Z,6.82
2022-08-20T07:29:56.102Z,5.53
2022-08-20T07:32:39.453Z,5.53
2022-08-20T07:35:10.733Z,5.80
2022-08-20T07:37:41.163Z,4.55
2022-08-20T07:40:12.726Z,5.15
2022-08-20T07:42:41.275Z,4.68
2022-08-20T07:45:13.613Z,4.22
2022-08-20T07:47:43.847Z,4.93
2022-08-20T07:50:13.779Z,4.22
2022-08-20T07:52:41.971Z,3.60
2022-08-20T07:55:13.276Z,3.75
2022-08-20T07:57:41.710Z,3.78
2022-08-20T08:00:13.855Z,3.58
2022-08-20T08:02:42.026Z,4.15
2022-08-20T08:05:11.315Z,3.03
2022-08-20T08:07:40.429Z,3.08
2022-08-20T08:10:14.879Z,3.20
2022-08-20T08:12:49.774Z,3.17
2022-08-20T08:15:22.607Z,2.67
2022-08-20T08:17:52.829Z,3.55
2022-08-20T08:20:22.826Z,3.22
2022-08-20T08:22:51.812Z,4.40
2022-08-20T08:25:19.955Z,4.40
2022-08-20T08:27:49.275Z,4.20
2022-08-20T08:30:19.252Z,3.95
2022-08-20T08:33:04.769Z,4.32
2022-08-20T08:35:33.392Z,3.75
2022-08-20T08:38:02.513Z,3.83
2022-08-20T08:40:31.916Z,3.85
2022-08-20T08:43:07.456Z,3.28
2022-08-20T08:45:45.989Z,3.95
2022-08-20T08:48:18.623Z,3.50
2022-08-20T08:50:52.947Z,3.00
2022-08-20T08:53:26.056Z,2.90
2022-08-20T08:55:54.133Z,2.72
2022-08-20T08:58:22.390Z,2.30
2022-08-20T09:00:56.015Z,2.28
2022-08-20T09:03:28.159Z,2.50
2022-08-20T09:06:00.840Z,2.67
2022-08-20T09:08:33.446Z,2.50
2022-08-20T09:11:08.623Z,2.63
2022-08-20T09:13:36.827Z,2.90
2022-08-20T09:16:06.660Z,2.10
2022-08-20T09:18:34.935Z,2.55
2022-08-20T09:21:03.699Z,2.08
2022-08-20T09:23:32.039Z,2.10
2022-08-20T09:26:00.308Z,1.83
2022-08-20T09:28:32.251Z,2.33
2022-08-20T09:31:03.165Z,2.50
2022-08-20T09:33:33.852Z,1.55
2022-08-20T09:36:02.589Z,2.35
2022-08-20T09:38:30.835Z,1.77
2022-08-20T09:40:58.904Z,2.13
2022-08-20T09:43:27.040Z,2.05
2022-08-20T09:45:55.774Z,2.53
2022-08-20T09:48:32.119Z,1.92
2022-08-20T09:51:02.335Z,2.25
2022-08-20T09:53:31.488Z,2.75
2022-08-20T09:56:00.710Z,1.63
2022-08-20T09:58:36.040Z,2.10
2022-08-20T10:01:13.789Z,1.90
2022-08-20T10:03:43.007Z,2.20
2022-08-20T10:06:14.822Z,1.83
2022-08-20T10:08:43.572Z,2.20
2022-08-20T10:11:12.121Z,1.73
2022-08-20T10:13:40.197Z,1.58
2022-08-20T10:16:08.615Z,2.08
2022-08-20T10:18:37.397Z,1.88
2022-08-20T10:21:11.545Z,1.73
2022-08-20T10:26:09.321Z,1.83
2022-08-20T10:28:37.878Z,1.40
2022-08-20T10:31:07.347Z,1.45
2022-08-20T10:33:36.546Z,2.15
2022-08-20T10:36:08.977Z,1.30
2022-08-20T10:38:37.300Z,1.65
2022-08-20T10:41:07.919Z,1.95
2022-08-20T10:43:36.543Z,1.70
2022-08-20T10:46:05.503Z,2.10
2022-08-20T10:48:33.901Z,1.85
2022-08-20T10:51:02.276Z,1.83
2022-08-20T10:53:30.343Z,1.90
2022-08-20T10:56:01.078Z,1.65
2022-08-20T10:58:39.232Z,1.85
2022-08-20T11:01:09.098Z,2.28
2022-08-20T11:03:37.510Z,1.48
2022-08-20T11:06:06.384Z,1.73
2022-08-20T11:08:36.009Z,1.48
2022-08-20T11:11:04.999Z,1.30
2022-08-20T11:13:34.949Z,1.80
2022-08-20T11:16:04.827Z,2.13
2022-08-20T11:18:33.588Z,1.58
2022-08-20T11:21:02.230Z,2.13
2022-08-20T11:23:30.561Z,1.65
2022-08-20T11:25:59.309Z,1.60
2022-08-20T11:28:32.271Z,1.38
2022-08-20T11:31:02.745Z,1.77
2022-08-20T11:33:31.003Z,1.70
2022-08-20T11:35:59.234Z,1.83
2022-08-20T11:38:27.874Z,1.75
2022-08-20T11:40:56.051Z,1.70
2022-08-20T11:43:24.545Z,1.75
2022-08-20T11:45:57.140Z,1.58
2022-08-20T11:48:27.203Z,1.67
2022-08-20T11:50:55.308Z,1.55
2022-08-20T11:53:23.375Z,1.60
2022-08-20T11:55:51.598Z,2.25
2022-08-20T11:58:19.863Z,1.55
2022-08-20T12:00:48.114Z,1.75
2022-08-20T12:03:16.848Z,1.90
2022-08-20T12:05:47.675Z,1.48
2022-08-20T12:08:25.151Z,2.05
2022-08-20T12:10:57.029Z,1.50
2022-08-20T12:13:30.765Z,2.22
2022-08-20T12:16:13.912Z,1.90
2022-08-20T12:18:42.214Z,1.67
2022-08-20T12:21:11.928Z,2.20
2022-08-20T12:23:40.120Z,2.38
2022-08-20T12:26:08.414Z,2.05
2022-08-20T12:28:37.884Z,1.50
2022-08-20T12:31:06.192Z,1.98
2022-08-20T12:33:34.337Z,2.38
2022-08-20T12:36:02.721Z,1.83
2022-08-20T12:38:32.450Z,1.92
2022-08-20T12:41:01.375Z,1.58
2022-08-20T12:43:29.589Z,2.00
2022-08-20T12:45:58.028Z,2.08
2022-08-20T12:48:27.731Z,2.10
2022-08-20T12:50:55.986Z,1.88
2022-08-20T12:53:24.059Z,1.55
2022-08-20T12:55:53.950Z,1.90
2022-08-20T12:58:22.273Z,2.22
2022-08-20T13:00:51.385Z,1.38
2022-08-20T13:03:21.157Z,1.92
2022-08-20T13:05:50.223Z,1.77
2022-08-20T13:08:19.389Z,1.77
2022-08-20T13:10:48.055Z,1.83
2022-08-20T13:13:20.432Z,1.63
2022-08-20T13:15:49.599Z,2.00
2022-08-20T13:18:17.885Z,1.70
2022-08-20T13:20:46.012Z,1.60
2022-08-20T13:23:14.078Z,2.22
2022-08-20T13:25:42.216Z,2.33
2022-08-20T13:28:10.280Z,2.05
2022-08-20T13:30:41.093Z,1.70
2022-08-20T13:33:09.145Z,2.00
2022-08-20T13:35:37.253Z,1.80
2022-08-20T13:38:05.718Z,2.17
2022-08-20T13:40:34.377Z,2.00
2022-08-20T13:43:06.824Z,1.88
2022-08-20T13:45:35.648Z,2.00
2022-08-20T13:48:07.520Z,2.85
2022-08-20T13:50:42.703Z,2.15
2022-08-20T13:53:10.892Z,1.90
2022-08-20T13:55:39.214Z,1.55
2022-08-20T13:58:08.946Z,1.83
2022-08-20T14:00:37.830Z,2.20
2022-08-20T14:03:08.187Z,2.17
2022-08-20T14:05:36.793Z,2.08
2022-08-20T14:08:09.611Z,2.20
2022-08-20T14:10:38.516Z,2.28
2022-08-20T14:13:08.392Z,2.22
2022-08-20T14:15:38.823Z,1.55
2022-08-20T14:18:08.552Z,1.70
2022-08-20T14:20:38.685Z,1.70
2022-08-20T14:23:07.403Z,1.90
2022-08-20T14:25:35.855Z,2.30
2022-08-20T14:28:11.664Z,1.50
2022-08-20T14:30:39.990Z,1.92
2022-08-20T14:33:09.706Z,1.95
2022-08-20T14:35:38.155Z,1.67
2022-08-20T14:38:06.991Z,1.83
2022-08-20T14:40:36.649Z,1.55
2022-08-20T14:43:04.685Z,1.67
2022-08-20T14:45:35.109Z,1.95
2022-08-20T14:48:07.923Z,2.00
2022-08-20T14:50:38.125Z,4.00
2022-08-20T14:53:08.225Z,2.50
2022-08-20T14:55:38.949Z,8.15
2022-08-20T14:58:10.258Z,4.22
2022-08-20T15:00:38.507Z,2.22
2022-08-20T15:03:08.583Z,2.30
2022-08-20T15:05:39.197Z,2.03
2022-08-20T15:08:10.441Z,1.70
2022-08-20T15:10:40.364Z,1.77
2022-08-20T15:13:08.885Z,2.20
2022-08-20T15:15:37.105Z,2.42
2022-08-20T15:18:06.109Z,1.70
2022-08-20T15:20:36.033Z,2.30
2022-08-20T15:23:06.080Z,2.83
2022-08-20T15:25:37.973Z,2.58
2022-08-20T15:28:08.890Z,2.78
2022-08-20T15:30:40.752Z,2.20
2022-08-20T15:33:11.268Z,1.98
2022-08-20T15:35:40.041Z,2.55
2022-08-20T15:38:09.971Z,2.20
2022-08-20T15:40:38.468Z,2.30
2022-08-20T15:43:07.557Z,1.80
2022-08-20T15:46:44.404Z,2.08
2022-08-20T15:49:15.854Z,2.28
2022-08-20T15:51:46.684Z,2.00
2022-08-20T15:54:20.382Z,2.13
2022-08-20T15:56:59.626Z,1.77
2022-08-20T15:59:43.303Z,1.83
2022-08-20T16:02:39.138Z,1.95
2022-08-20T16:05:23.705Z,1.80
2022-08-20T16:08:04.375Z,2.00
2022-08-20T16:10:43.583Z,1.85
2022-08-20T16:13:24.313Z,1.67
2022-08-20T16:15:56.051Z,2.28
2022-08-20T16:18:28.888Z,1.80
2022-08-20T16:21:03.825Z,2.35
2022-08-20T16:23:35.444Z,1.92
2022-08-20T16:26:16.371Z,1.45
2022-08-20T16:28:54.032Z,1.73
2022-08-20T16:31:26.640Z,1.92
2022-08-20T16:34:10.518Z,2.33
2022-08-20T16:37:03.277Z,1.80
2022-08-20T16:39:38.491Z,1.85
2022-08-20T16:42:10.158Z,2.20
2022-08-20T16:44:41.760Z,2.05
2022-08-20T16:47:17.189Z,1.90
2022-08-20T16:49:50.745Z,2.03
2022-08-20T16:52:18.809Z,2.30
2022-08-20T16:54:46.824Z,2.47
2022-08-20T16:57:17.517Z,2.97
2022-08-20T16:59:57.095Z,2.25
2022-08-20T17:02:26.259Z,2.45
2022-08-20T17:05:00.850Z,2.65
2022-08-20T17:07:43.254Z,2.15
2022-08-20T17:10:16.019Z,1.90
2022-08-20T17:12:45.848Z,1.75
2022-08-20T17:15:22.491Z,2.00
2022-08-20T17:17:50.843Z,2.50
2022-08-20T17:20:21.501Z,2.25
2022-08-20T17:22:52.916Z,2.60
2022-08-20T17:25:30.784Z,2.28
2022-08-20T17:28:01.048Z,2.03
2022-08-20T17:30:37.528Z,1.92
2022-08-20T17:33:22.930Z,2.25
2022-08-20T17:35:54.743Z,2.10
2022-08-20T17:38:29.816Z,1.95
2022-08-20T17:41:00.791Z,2.17
2022-08-20T17:43:32.258Z,1.55
2022-08-20T17:46:03.166Z,1.70
2022-08-20T17:48:36.561Z,1.73
2022-08-20T17:51:14.705Z,1.90
2022-08-20T17:53:44.829Z,2.22
2022-08-20T17:56:19.454Z,1.98
2022-08-20T17:58:54.471Z,2.20
2022-08-20T18:01:25.942Z,1.92
2022-08-20T18:03:54.634Z,1.95
2022-08-20T18:06:31.068Z,2.30
2022-08-20T18:09:05.814Z,1.83
2022-08-20T18:11:41.151Z,2.17
2022-08-20T18:14:39.106Z,1.75
2022-08-20T18:17:31.164Z,1.70
2022-08-20T18:20:11.534Z,1.73
2022-08-20T18:22:49.080Z,1.77
2022-08-20T18:25:28.248Z,1.80
2022-08-20T18:28:02.823Z,1.73
2022-08-20T18:30:34.334Z,1.77
2022-08-20T18:33:06.392Z,1.90
2022-08-20T18:35:37.635Z,1.58
2022-08-20T18:38:29.695Z,1.48
2022-08-20T18:41:11.819Z,1.63
2022-08-20T18:43:42.685Z,1.63
2022-08-20T18:46:21.481Z,2.03
2022-08-20T18:48:58.454Z,1.40
2022-08-20T18:51:36.204Z,1.48
2022-08-20T18:54:05.358Z,1.60
2022-08-20T18:57:02.685Z,2.38
2022-08-20T18:59:32.302Z,2.33
2022-08-20T19:02:15.860Z,2.35
2022-08-20T19:04:44.651Z,1.63
2022-08-20T19:07:17.751Z,1.80
2022-08-20T19:10:27.897Z,1.77
2022-08-20T19:13:50.228Z,1.45
2022-08-20T19:16:24.863Z,1.50
2022-08-20T19:18:56.173Z,1.50
2022-08-20T19:21:28.132Z,1.63
2022-08-20T19:24:00.925Z,1.85
2022-08-20T19:26:32.699Z,1.40
2022-08-20T19:29:08.412Z,1.50
2022-08-20T19:31:37.821Z,1.38
2022-08-20T19:34:21.491Z,1.13
2022-08-20T19:36:56.089Z,2.22
2022-08-20T19:39:26.186Z,1.40
2022-08-20T19:41:57.692Z,1.50
2022-08-20T19:44:32.727Z,1.73
2022-08-20T19:47:02.020Z,1.40
2022-08-20T19:49:42.723Z,1.30
2022-08-20T19:52:26.301Z,1.60
2022-08-20T19:55:01.330Z,1.45
2022-08-20T19:57:31.768Z,1.40
2022-08-20T20:00:04.898Z,1.52
2022-08-20T20:02:34.615Z,1.52
2022-08-20T20:05:08.142Z,1.83
2022-08-20T20:07:40.305Z,1.75
2022-08-20T20:10:11.615Z,1.95
2022-08-20T20:12:40.572Z,1.80
2022-08-20T20:15:09.241Z,1.65
2022-08-20T20:17:38.116Z,1.75
2022-08-20T20:20:23.157Z,2.05
2022-08-20T20:22:55.760Z,2.00
2022-08-20T20:25:37.107Z,1.45
2022-08-20T20:28:10.854Z,1.35
2022-08-20T20:31:17.656Z,1.60
2022-08-20T20:33:52.234Z,1.55
2022-08-20T20:36:36.326Z,1.38
2022-08-20T20:39:11.248Z,1.90
2022-08-20T20:41:51.856Z,1.85
2022-08-20T20:44:21.509Z,1.88
2022-08-20T20:46:52.848Z,2.00
2022-08-20T20:49:26.507Z,2.03
2022-08-20T20:51:59.729Z,2.15
2022-08-20T20:54:33.836Z,1.70
2022-08-20T20:57:05.183Z,2.15
2022-08-20T20:59:36.363Z,2.00
2022-08-20T21:02:05.656Z,2.22
2022-08-20T21:04:34.164Z,2.13
2022-08-20T21:07:09.892Z,2.03
2022-08-20T21:09:40.603Z,2.47
2022-08-20T21:13:07.581Z,2.30
2022-08-20T21:15:37.385Z,3.00
2022-08-20T21:18:08.549Z,2.90
2022-08-20T21:20:37.590Z,2.45
2022-08-20T21:23:07.139Z,2.90
2022-08-20T21:25:36.461Z,2.53
2022-08-20T21:28:05.380Z,3.45
2022-08-20T21:30:33.815Z,3.53
2022-08-20T21:33:02.534Z,3.10
2022-08-20T21:35:31.723Z,3.58
2022-08-20T21:37:59.743Z,3.75
2022-08-20T21:40:29.310Z,3.10
2022-08-20T21:42:57.491Z,2.85
2022-08-20T21:45:28.261Z,3.40
2022-08-20T21:47:57.175Z,3.55
2022-08-20T21:50:26.155Z,3.47
2022-08-20T21:52:59.194Z,2.88
2022-08-20T21:55:42.274Z,3.45
2022-08-20T21:58:10.863Z,2.80
2022-08-20T22:00:53.858Z,2.92
2022-08-20T22:03:23.468Z,3.25
2022-08-20T22:05:52.565Z,3.15
2022-08-20T22:08:21.728Z,3.30
2022-08-20T22:15:32.133Z,3.35
2022-08-20T22:18:02.229Z,3.28
2022-08-20T22:20:31.147Z,3.40
2022-08-20T22:22:59.408Z,3.28
2022-08-20T22:25:28.145Z,3.63
2022-08-20T22:27:56.283Z,3.75
2022-08-20T22:30:24.446Z,3.53
2022-08-20T22:32:53.182Z,3.92
2022-08-20T22:35:22.972Z,3.58
2022-08-20T22:37:51.598Z,3.40
2022-08-20T22:40:19.966Z,4.05
2022-08-20T22:42:48.110Z,3.75
2022-08-20T22:45:16.479Z,3.22
2022-08-20T22:47:45.189Z,3.30
2022-08-20T22:50:14.617Z,3.67
2022-08-20T22:52:45.451Z,3.72
2022-08-20T22:55:13.928Z,3.38
2022-08-20T23:01:30.247Z,3.65
2022-08-20T23:04:04.625Z,3.88
2022-08-20T23:06:32.960Z,3.75
2022-08-20T23:09:02.800Z,4.20
2022-08-20T23:11:31.109Z,3.78
2022-08-20T23:13:59.227Z,3.60
2022-08-20T23:16:27.571Z,3.63
2022-08-20T23:18:56.897Z,3.70
2022-08-20T23:25:08.751Z,3.47
2022-08-20T23:27:42.422Z,3.67
2022-08-20T23:30:11.653Z,4.03
2022-08-20T23:32:40.137Z,3.45
2022-08-20T23:35:09.905Z,3.42
2022-08-20T23:37:42.161Z,3.95
2022-08-20T23:40:13.201Z,3.67
2022-08-20T23:43:38.153Z,3.72
2022-08-20T23:46:09.275Z,4.07
2022-08-20T23:48:38.260Z,3.70
2022-08-20T23:51:07.060Z,3.40
2022-08-20T23:53:35.390Z,3.83
2022-08-20T23:56:05.406Z,3.92
2022-08-20T23:58:33.577Z,3.58
